Aérodrome :
LOGIN :

S'inscrire | Disclaimer

   EN    FR    IT 

 










Légende :    VFR   VFR Marginal   IFR   IFR Intensif   IFR Très Intensif
Visi : 
Plafond : 
>= 8 km
>= 3000ft
5 à 8 km
1000 à 3000 ft
1500m à 5 km
500 à 1000 ft
800 à 1500m
200 à 500 ft
< 800m
< 200 ft
Symboles :   Orages  Brouillard  Fortes neiges  Fortes précipitations  Vent > 20 kt
SIGMETs :   Divers  Orages  Givrage  Turbulence  Onde Orograph.  Cendres Volcan.







- Altitude de l'aérodrome : 782 ft
- Code IATA : BGY


LIME - Orio al Serio International - Bergamo

DERNIER METAR :
  • 212220Z 04009KT 9999 -TSRA SCT050CB BKN080 21/19 Q1013 RERA BECMG NSW

METARs EXPIRÉS :
  • 212150Z 02010KT 9999 -RA TS SCT050CB BKN080 20/19 Q1013 RESHRA NOSIG
  • 212120Z 27011KT 230V340 5000 +SHRA TS SCT040CB BKN060 19/18 Q1014 NOSIG
  • 212050Z 31007KT 9999 SCT060CB BKN080 22/18 Q1013 BECMG TSRA
  • 212020Z 29007KT 260V330 9999 -DZ SCT050CB BKN060 21/19 Q1012 RETS BECMG TSRA
  • 211950Z 16007KT 120V210 9999 -SHRA TS SCT050CB BKN060 26/16 Q1012 NOSIG

TAF TAF LIME
Valide du 21 à 18h jusqu'au 22 à 18h UTC


211700Z 2118/2218 VRB05KT 9999 SCT040 SCT070
TEMPO 2118/2202 4000 TSRA
Pas de NOTAMs connus pour ce terrain.



MET'MAP, la Météo Aéronautique d'un coup d'oeil ! - Copyright ORBIFLY Décembre 2007 - Disclaimer

ORBIFLY MET'MAP TEAM :

Programmation & Développement : Alexandra Zaïnal
Conception & Développement : Baudouin d'Aumeries
Co-Programmation & Développement : Marc-Olivier Méhu
Soutien technique & logistique : Manuel Goepfert

Contact : metmap@orbifly.com




SOURCES & CREDITS :

   NOAA